sensor_id;sensor_type;location;lat;lon;timestamp;P1;durP1;ratioP1;P2;durP2;ratioP2
8683;SDS011;4379;59.744;18.206;2023-03-01T00:01:17;3.57;;;0.90;;
8683;SDS011;4379;59.744;18.206;2023-03-01T00:03:46;2.53;;;1.10;;
8683;SDS011;4379;59.744;18.206;2023-03-01T00:06:14;4.33;;;1.07;;
8683;SDS011;4379;59.744;18.206;2023-03-01T00:08:42;1.60;;;0.87;;
8683;SDS011;4379;59.744;18.206;2023-03-01T00:11:11;2.43;;;1.10;;
8683;SDS011;4379;59.744;18.206;2023-03-01T00:13:47;1.80;;;1.00;;
8683;SDS011;4379;59.744;18.206;2023-03-01T00:16:21;0.80;;;0.67;;
8683;SDS011;4379;59.744;18.206;2023-03-01T00:18:54;4.00;;;1.07;;
8683;SDS011;4379;59.744;18.206;2023-03-01T00:21:22;2.80;;;1.13;;
8683;SDS011;4379;59.744;18.206;2023-03-01T00:23:51;1.53;;;0.90;;
8683;SDS011;4379;59.744;18.206;2023-03-01T00:26:20;1.53;;;0.90;;
8683;SDS011;4379;59.744;18.206;2023-03-01T00:28:48;3.17;;;1.03;;
8683;SDS011;4379;59.744;18.206;2023-03-01T00:31:17;2.67;;;0.87;;
8683;SDS011;4379;59.744;18.206;2023-03-01T00:33:47;2.83;;;1.10;;
8683;SDS011;4379;59.744;18.206;2023-03-01T00:36:15;3.53;;;1.13;;
8683;SDS011;4379;59.744;18.206;2023-03-01T00:38:43;3.87;;;0.80;;
8683;SDS011;4379;59.744;18.206;2023-03-01T00:41:13;2.83;;;1.10;;
8683;SDS011;4379;59.744;18.206;2023-03-01T00:43:44;1.77;;;1.00;;
8683;SDS011;4379;59.744;18.206;2023-03-01T00:46:12;2.47;;;1.03;;
8683;SDS011;4379;59.744;18.206;2023-03-01T00:48:41;1.27;;;0.80;;
8683;SDS011;4379;59.744;18.206;2023-03-01T00:51:13;1.70;;;0.97;;
8683;SDS011;4379;59.744;18.206;2023-03-01T00:53:43;1.00;;;0.90;;
8683;SDS011;4379;59.744;18.206;2023-03-01T00:56:11;0.90;;;0.70;;
8683;SDS011;4379;59.744;18.206;2023-03-01T00:58:40;1.77;;;0.67;;
8683;SDS011;4379;59.744;18.206;2023-03-01T01:01:15;1.57;;;1.00;;
8683;SDS011;4379;59.744;18.206;2023-03-01T01:03:49;1.37;;;0.80;;
8683;SDS011;4379;59.744;18.206;2023-03-01T01:06:24;1.97;;;0.80;;
8683;SDS011;4379;59.744;18.206;2023-03-01T01:08:54;2.60;;;0.90;;
8683;SDS011;4379;59.744;18.206;2023-03-01T01:11:23;1.57;;;0.67;;
8683;SDS011;4379;59.744;18.206;2023-03-01T01:13:52;3.60;;;1.00;;
8683;SDS011;4379;59.744;18.206;2023-03-01T01:16:20;0.70;;;0.60;;
8683;SDS011;4379;59.744;18.206;2023-03-01T01:18:49;0.70;;;0.70;;
8683;SDS011;4379;59.744;18.206;2023-03-01T01:21:18;1.50;;;0.70;;
8683;SDS011;4379;59.744;18.206;2023-03-01T01:23:48;0.90;;;0.70;;
8683;SDS011;4379;59.744;18.206;2023-03-01T01:26:18;3.73;;;0.90;;
8683;SDS011;4379;59.744;18.206;2023-03-01T01:28:48;0.87;;;0.53;;
8683;SDS011;4379;59.744;18.206;2023-03-01T01:31:16;1.73;;;1.00;;
8683;SDS011;4379;59.744;18.206;2023-03-01T01:33:44;1.47;;;0.90;;
8683;SDS011;4379;59.744;18.206;2023-03-01T01:36:12;1.03;;;0.77;;
8683;SDS011;4379;59.744;18.206;2023-03-01T01:38:39;0.70;;;0.70;;
8683;SDS011;4379;59.744;18.206;2023-03-01T01:41:09;3.23;;;0.77;;
8683;SDS011;4379;59.744;18.206;2023-03-01T01:43:41;1.87;;;0.73;;
8683;SDS011;4379;59.744;18.206;2023-03-01T01:46:32;2.80;;;0.70;;
8683;SDS011;4379;59.744;18.206;2023-03-01T01:49:07;3.27;;;1.10;;
8683;SDS011;4379;59.744;18.206;2023-03-01T01:51:42;1.87;;;0.77;;
8683;SDS011;4379;59.744;18.206;2023-03-01T01:54:18;1.63;;;0.80;;
8683;SDS011;4379;59.744;18.206;2023-03-01T01:57:08;1.00;;;0.80;;
8683;SDS011;4379;59.744;18.206;2023-03-01T01:59:39;0.83;;;0.60;;
8683;SDS011;4379;59.744;18.206;2023-03-01T02:02:09;1.70;;;0.80;;
8683;SDS011;4379;59.744;18.206;2023-03-01T02:04:38;3.03;;;0.80;;
8683;SDS011;4379;59.744;18.206;2023-03-01T02:07:09;2.33;;;1.00;;
8683;SDS011;4379;59.744;18.206;2023-03-01T02:09:47;1.00;;;0.70;;
8683;SDS011;4379;59.744;18.206;2023-03-01T02:12:16;1.03;;;0.80;;
8683;SDS011;4379;59.744;18.206;2023-03-01T02:14:46;2.63;;;0.90;;
8683;SDS011;4379;59.744;18.206;2023-03-01T02:17:14;1.33;;;0.83;;
8683;SDS011;4379;59.744;18.206;2023-03-01T02:22:22;0.87;;;0.80;;
8683;SDS011;4379;59.744;18.206;2023-03-01T02:27:57;1.60;;;1.00;;
8683;SDS011;4379;59.744;18.206;2023-03-01T02:30:25;1.10;;;0.80;;
8683;SDS011;4379;59.744;18.206;2023-03-01T02:32:55;0.77;;;0.70;;
8683;SDS011;4379;59.744;18.206;2023-03-01T02:35:33;1.00;;;0.63;;
8683;SDS011;4379;59.744;18.206;2023-03-01T02:38:06;2.17;;;1.20;;
8683;SDS011;4379;59.744;18.206;2023-03-01T02:40:35;1.10;;;0.63;;
8683;SDS011;4379;59.744;18.206;2023-03-01T02:43:06;2.50;;;0.87;;
8683;SDS011;4379;59.744;18.206;2023-03-01T02:45:37;2.83;;;0.83;;
8683;SDS011;4379;59.744;18.206;2023-03-01T02:48:09;1.20;;;0.90;;
8683;SDS011;4379;59.744;18.206;2023-03-01T02:56:22;2.30;;;0.87;;
8683;SDS011;4379;59.744;18.206;2023-03-01T02:58:49;1.77;;;0.80;;
8683;SDS011;4379;59.744;18.206;2023-03-01T03:01:18;0.63;;;0.63;;
8683;SDS011;4379;59.744;18.206;2023-03-01T03:03:46;1.10;;;1.00;;
8683;SDS011;4379;59.744;18.206;2023-03-01T03:06:14;1.50;;;0.70;;
8683;SDS011;4379;59.744;18.206;2023-03-01T03:08:42;1.17;;;0.80;;
8683;SDS011;4379;59.744;18.206;2023-03-01T03:11:10;1.73;;;0.80;;
8683;SDS011;4379;59.744;18.206;2023-03-01T03:13:38;0.93;;;0.70;;
8683;SDS011;4379;59.744;18.206;2023-03-01T03:16:14;1.53;;;0.93;;
8683;SDS011;4379;59.744;18.206;2023-03-01T03:18:42;0.73;;;0.70;;
8683;SDS011;4379;59.744;18.206;2023-03-01T03:21:11;3.70;;;1.30;;
8683;SDS011;4379;59.744;18.206;2023-03-01T03:23:39;0.73;;;0.67;;
8683;SDS011;4379;59.744;18.206;2023-03-01T03:26:06;1.77;;;0.90;;
8683;SDS011;4379;59.744;18.206;2023-03-01T03:28:34;1.30;;;0.70;;
8683;SDS011;4379;59.744;18.206;2023-03-01T03:31:02;1.27;;;1.07;;
8683;SDS011;4379;59.744;18.206;2023-03-01T03:33:33;1.70;;;0.60;;
8683;SDS011;4379;59.744;18.206;2023-03-01T03:36:00;1.00;;;0.73;;
8683;SDS011;4379;59.744;18.206;2023-03-01T03:38:28;0.80;;;0.80;;
8683;SDS011;4379;59.744;18.206;2023-03-01T03:41:03;0.77;;;0.73;;
8683;SDS011;4379;59.744;18.206;2023-03-01T03:43:34;1.23;;;0.87;;
8683;SDS011;4379;59.744;18.206;2023-03-01T03:46:04;1.10;;;1.00;;
8683;SDS011;4379;59.744;18.206;2023-03-01T03:48:36;1.17;;;0.70;;
8683;SDS011;4379;59.744;18.206;2023-03-01T03:51:05;0.83;;;0.83;;
8683;SDS011;4379;59.744;18.206;2023-03-01T03:53:33;1.90;;;0.60;;
8683;SDS011;4379;59.744;18.206;2023-03-01T03:56:01;1.70;;;1.00;;
8683;SDS011;4379;59.744;18.206;2023-03-01T03:58:28;0.90;;;0.70;;
8683;SDS011;4379;59.744;18.206;2023-03-01T04:00:56;1.07;;;0.97;;
8683;SDS011;4379;59.744;18.206;2023-03-01T04:03:24;0.77;;;0.77;;
8683;SDS011;4379;59.744;18.206;2023-03-01T04:05:52;1.33;;;0.90;;
8683;SDS011;4379;59.744;18.206;2023-03-01T04:08:21;0.60;;;0.60;;
8683;SDS011;4379;59.744;18.206;2023-03-01T04:10:50;2.37;;;0.80;;
8683;SDS011;4379;59.744;18.206;2023-03-01T04:13:20;2.07;;;0.70;;
8683;SDS011;4379;59.744;18.206;2023-03-01T04:15:49;0.80;;;0.80;;
8683;SDS011;4379;59.744;18.206;2023-03-01T04:18:21;0.90;;;0.80;;
8683;SDS011;4379;59.744;18.206;2023-03-01T04:20:51;0.80;;;0.60;;
8683;SDS011;4379;59.744;18.206;2023-03-01T04:23:22;0.90;;;0.90;;
8683;SDS011;4379;59.744;18.206;2023-03-01T04:25:53;3.27;;;0.97;;
8683;SDS011;4379;59.744;18.206;2023-03-01T04:28:33;0.60;;;0.60;;
8683;SDS011;4379;59.744;18.206;2023-03-01T04:31:04;1.43;;;0.90;;
8683;SDS011;4379;59.744;18.206;2023-03-01T04:33:41;2.77;;;0.80;;
8683;SDS011;4379;59.744;18.206;2023-03-01T04:36:10;0.80;;;0.77;;
8683;SDS011;4379;59.744;18.206;2023-03-01T04:38:39;1.43;;;0.97;;
8683;SDS011;4379;59.744;18.206;2023-03-01T04:41:08;1.03;;;0.60;;
8683;SDS011;4379;59.744;18.206;2023-03-01T04:43:37;0.93;;;0.83;;
8683;SDS011;4379;59.744;18.206;2023-03-01T04:46:06;1.00;;;0.90;;
8683;SDS011;4379;59.744;18.206;2023-03-01T04:48:39;1.60;;;0.83;;
8683;SDS011;4379;59.744;18.206;2023-03-01T04:51:07;1.47;;;0.90;;
8683;SDS011;4379;59.744;18.206;2023-03-01T04:53:35;1.93;;;0.80;;
8683;SDS011;4379;59.744;18.206;2023-03-01T04:56:03;2.20;;;0.93;;
8683;SDS011;4379;59.744;18.206;2023-03-01T04:58:31;1.07;;;0.80;;
8683;SDS011;4379;59.744;18.206;2023-03-01T05:00:58;1.03;;;0.87;;
8683;SDS011;4379;59.744;18.206;2023-03-01T05:03:26;1.27;;;0.80;;
8683;SDS011;4379;59.744;18.206;2023-03-01T05:05:54;1.10;;;0.60;;
8683;SDS011;4379;59.744;18.206;2023-03-01T05:08:26;0.70;;;0.70;;
8683;SDS011;4379;59.744;18.206;2023-03-01T05:10:53;1.60;;;1.00;;
8683;SDS011;4379;59.744;18.206;2023-03-01T05:13:21;1.30;;;0.70;;
8683;SDS011;4379;59.744;18.206;2023-03-01T05:15:58;1.17;;;0.60;;
8683;SDS011;4379;59.744;18.206;2023-03-01T05:18:27;0.70;;;0.60;;
8683;SDS011;4379;59.744;18.206;2023-03-01T05:21:05;2.37;;;1.17;;
8683;SDS011;4379;59.744;18.206;2023-03-01T05:23:37;0.80;;;0.80;;
8683;SDS011;4379;59.744;18.206;2023-03-01T05:26:06;1.93;;;0.90;;
8683;SDS011;4379;59.744;18.206;2023-03-01T05:28:47;1.00;;;0.70;;
8683;SDS011;4379;59.744;18.206;2023-03-01T05:31:15;1.50;;;0.80;;
8683;SDS011;4379;59.744;18.206;2023-03-01T05:33:42;0.90;;;0.80;;
8683;SDS011;4379;59.744;18.206;2023-03-01T05:36:10;1.63;;;0.80;;
8683;SDS011;4379;59.744;18.206;2023-03-01T05:38:37;0.97;;;0.80;;
8683;SDS011;4379;59.744;18.206;2023-03-01T05:41:05;2.67;;;0.97;;
8683;SDS011;4379;59.744;18.206;2023-03-01T05:43:39;1.60;;;1.10;;
8683;SDS011;4379;59.744;18.206;2023-03-01T05:46:10;1.13;;;0.83;;
8683;SDS011;4379;59.744;18.206;2023-03-01T05:48:40;1.63;;;0.80;;
8683;SDS011;4379;59.744;18.206;2023-03-01T05:51:07;1.03;;;0.80;;
8683;SDS011;4379;59.744;18.206;2023-03-01T05:53:34;0.87;;;0.60;;
8683;SDS011;4379;59.744;18.206;2023-03-01T05:56:03;1.43;;;0.63;;
8683;SDS011;4379;59.744;18.206;2023-03-01T05:58:31;0.83;;;0.70;;
8683;SDS011;4379;59.744;18.206;2023-03-01T06:00:58;1.07;;;0.53;;
8683;SDS011;4379;59.744;18.206;2023-03-01T06:03:26;0.80;;;0.40;;
8683;SDS011;4379;59.744;18.206;2023-03-01T06:05:56;1.63;;;0.63;;
8683;SDS011;4379;59.744;18.206;2023-03-01T06:08:24;0.80;;;0.80;;
8683;SDS011;4379;59.744;18.206;2023-03-01T06:10:54;1.07;;;0.70;;
8683;SDS011;4379;59.744;18.206;2023-03-01T06:13:22;1.33;;;0.50;;
8683;SDS011;4379;59.744;18.206;2023-03-01T06:15:50;1.97;;;0.60;;
8683;SDS011;4379;59.744;18.206;2023-03-01T06:18:18;0.77;;;0.60;;
8683;SDS011;4379;59.744;18.206;2023-03-01T06:20:51;1.17;;;0.70;;
8683;SDS011;4379;59.744;18.206;2023-03-01T06:23:20;0.87;;;0.70;;
8683;SDS011;4379;59.744;18.206;2023-03-01T06:25:48;1.50;;;0.60;;
8683;SDS011;4379;59.744;18.206;2023-03-01T06:28:15;0.73;;;0.57;;
8683;SDS011;4379;59.744;18.206;2023-03-01T06:30:43;0.53;;;0.47;;
8683;SDS011;4379;59.744;18.206;2023-03-01T06:33:11;0.87;;;0.70;;
8683;SDS011;4379;59.744;18.206;2023-03-01T06:35:38;0.83;;;0.53;;
8683;SDS011;4379;59.744;18.206;2023-03-01T06:38:06;0.83;;;0.40;;
8683;SDS011;4379;59.744;18.206;2023-03-01T06:40:33;1.03;;;0.60;;
8683;SDS011;4379;59.744;18.206;2023-03-01T06:43:01;0.47;;;0.47;;
8683;SDS011;4379;59.744;18.206;2023-03-01T06:45:29;1.70;;;0.40;;
8683;SDS011;4379;59.744;18.206;2023-03-01T06:48:03;1.43;;;0.60;;
8683;SDS011;4379;59.744;18.206;2023-03-01T06:50:32;0.70;;;0.60;;
8683;SDS011;4379;59.744;18.206;2023-03-01T06:53:01;1.03;;;0.70;;
8683;SDS011;4379;59.744;18.206;2023-03-01T06:55:29;0.73;;;0.73;;
8683;SDS011;4379;59.744;18.206;2023-03-01T06:57:57;1.07;;;0.60;;
8683;SDS011;4379;59.744;18.206;2023-03-01T07:00:25;0.77;;;0.60;;
8683;SDS011;4379;59.744;18.206;2023-03-01T07:02:53;0.90;;;0.50;;
8683;SDS011;4379;59.744;18.206;2023-03-01T07:05:24;0.40;;;0.40;;
8683;SDS011;4379;59.744;18.206;2023-03-01T07:07:52;0.53;;;0.53;;
8683;SDS011;4379;59.744;18.206;2023-03-01T07:10:20;0.40;;;0.40;;
8683;SDS011;4379;59.744;18.206;2023-03-01T07:12:48;1.23;;;0.50;;
8683;SDS011;4379;59.744;18.206;2023-03-01T07:15:15;0.30;;;0.30;;
8683;SDS011;4379;59.744;18.206;2023-03-01T07:17:43;0.60;;;0.47;;
8683;SDS011;4379;59.744;18.206;2023-03-01T07:20:11;1.93;;;0.53;;
8683;SDS011;4379;59.744;18.206;2023-03-01T07:22:41;0.73;;;0.40;;
8683;SDS011;4379;59.744;18.206;2023-03-01T07:25:09;1.57;;;0.43;;
8683;SDS011;4379;59.744;18.206;2023-03-01T07:27:37;0.67;;;0.57;;
8683;SDS011;4379;59.744;18.206;2023-03-01T07:30:05;0.40;;;0.33;;
8683;SDS011;4379;59.744;18.206;2023-03-01T07:32:33;0.60;;;0.50;;
8683;SDS011;4379;59.744;18.206;2023-03-01T07:35:01;0.63;;;0.60;;
8683;SDS011;4379;59.744;18.206;2023-03-01T07:37:28;0.30;;;0.30;;
8683;SDS011;4379;59.744;18.206;2023-03-01T07:39:55;1.43;;;0.60;;
8683;SDS011;4379;59.744;18.206;2023-03-01T07:42:23;1.27;;;0.50;;
8683;SDS011;4379;59.744;18.206;2023-03-01T07:44:51;0.30;;;0.30;;
8683;SDS011;4379;59.744;18.206;2023-03-01T07:47:18;0.73;;;0.43;;
8683;SDS011;4379;59.744;18.206;2023-03-01T07:49:45;0.50;;;0.40;;
8683;SDS011;4379;59.744;18.206;2023-03-01T07:52:13;0.77;;;0.30;;
8683;SDS011;4379;59.744;18.206;2023-03-01T07:54:42;0.57;;;0.30;;
8683;SDS011;4379;59.744;18.206;2023-03-01T07:57:10;0.47;;;0.47;;
8683;SDS011;4379;59.744;18.206;2023-03-01T07:59:38;0.23;;;0.20;;
8683;SDS011;4379;59.744;18.206;2023-03-01T08:02:05;0.27;;;0.27;;
8683;SDS011;4379;59.744;18.206;2023-03-01T08:04:33;0.37;;;0.37;;
8683;SDS011;4379;59.744;18.206;2023-03-01T08:07:01;0.50;;;0.40;;
8683;SDS011;4379;59.744;18.206;2023-03-01T08:09:31;0.30;;;0.30;;
8683;SDS011;4379;59.744;18.206;2023-03-01T08:12:01;0.40;;;0.40;;
8683;SDS011;4379;59.744;18.206;2023-03-01T08:14:28;0.37;;;0.37;;
8683;SDS011;4379;59.744;18.206;2023-03-01T08:16:56;0.47;;;0.30;;
8683;SDS011;4379;59.744;18.206;2023-03-01T08:19:23;0.40;;;0.40;;
8683;SDS011;4379;59.744;18.206;2023-03-01T08:21:51;0.47;;;0.40;;
8683;SDS011;4379;59.744;18.206;2023-03-01T08:24:18;0.73;;;0.53;;
8683;SDS011;4379;59.744;18.206;2023-03-01T08:26:45;0.47;;;0.40;;
8683;SDS011;4379;59.744;18.206;2023-03-01T08:29:13;1.60;;;0.57;;
8683;SDS011;4379;59.744;18.206;2023-03-01T08:31:40;0.30;;;0.30;;
8683;SDS011;4379;59.744;18.206;2023-03-01T08:34:09;1.30;;;0.50;;
8683;SDS011;4379;59.744;18.206;2023-03-01T08:36:39;0.40;;;0.40;;
8683;SDS011;4379;59.744;18.206;2023-03-01T08:39:10;0.30;;;0.30;;
8683;SDS011;4379;59.744;18.206;2023-03-01T08:41:39;0.30;;;0.30;;
8683;SDS011;4379;59.744;18.206;2023-03-01T08:44:07;0.70;;;0.40;;
8683;SDS011;4379;59.744;18.206;2023-03-01T08:46:39;0.70;;;0.30;;
8683;SDS011;4379;59.744;18.206;2023-03-01T08:49:10;1.10;;;0.30;;
8683;SDS011;4379;59.744;18.206;2023-03-01T08:51:39;0.57;;;0.40;;
8683;SDS011;4379;59.744;18.206;2023-03-01T08:54:11;0.70;;;0.40;;
8683;SDS011;4379;59.744;18.206;2023-03-01T08:56:41;0.37;;;0.30;;
8683;SDS011;4379;59.744;18.206;2023-03-01T08:59:10;0.10;;;0.10;;
8683;SDS011;4379;59.744;18.206;2023-03-01T09:01:38;0.43;;;0.33;;
8683;SDS011;4379;59.744;18.206;2023-03-01T09:04:06;0.57;;;0.50;;
8683;SDS011;4379;59.744;18.206;2023-03-01T09:06:33;0.30;;;0.30;;
8683;SDS011;4379;59.744;18.206;2023-03-01T09:09:02;0.77;;;0.53;;
8683;SDS011;4379;59.744;18.206;2023-03-01T09:11:30;0.40;;;0.40;;
8683;SDS011;4379;59.744;18.206;2023-03-01T09:13:58;0.30;;;0.30;;
8683;SDS011;4379;59.744;18.206;2023-03-01T09:16:25;0.70;;;0.30;;
8683;SDS011;4379;59.744;18.206;2023-03-01T09:18:53;1.00;;;0.30;;
8683;SDS011;4379;59.744;18.206;2023-03-01T09:21:23;0.77;;;0.40;;
8683;SDS011;4379;59.744;18.206;2023-03-01T09:24:12;0.27;;;0.27;;
8683;SDS011;4379;59.744;18.206;2023-03-01T09:26:41;1.03;;;0.40;;
8683;SDS011;4379;59.744;18.206;2023-03-01T09:29:11;0.30;;;0.30;;
8683;SDS011;4379;59.744;18.206;2023-03-01T09:31:39;0.30;;;0.30;;
8683;SDS011;4379;59.744;18.206;2023-03-01T09:34:08;0.40;;;0.40;;
8683;SDS011;4379;59.744;18.206;2023-03-01T09:36:36;0.30;;;0.30;;
8683;SDS011;4379;59.744;18.206;2023-03-01T09:39:07;0.40;;;0.40;;
8683;SDS011;4379;59.744;18.206;2023-03-01T09:44:31;0.40;;;0.40;;
8683;SDS011;4379;59.744;18.206;2023-03-01T09:46:59;0.40;;;0.30;;
8683;SDS011;4379;59.744;18.206;2023-03-01T09:49:36;0.20;;;0.20;;
8683;SDS011;4379;59.744;18.206;2023-03-01T09:52:16;0.30;;;0.30;;
8683;SDS011;4379;59.744;18.206;2023-03-01T09:54:55;0.60;;;0.60;;
8683;SDS011;4379;59.744;18.206;2023-03-01T09:57:28;0.40;;;0.40;;
8683;SDS011;4379;59.744;18.206;2023-03-01T10:02:59;0.30;;;0.30;;
8683;SDS011;4379;59.744;18.206;2023-03-01T10:05:54;0.57;;;0.23;;
8683;SDS011;4379;59.744;18.206;2023-03-01T10:08:28;0.90;;;0.43;;
8683;SDS011;4379;59.744;18.206;2023-03-01T10:14:30;0.50;;;0.50;;
8683;SDS011;4379;59.744;18.206;2023-03-01T10:19:50;0.37;;;0.37;;
8683;SDS011;4379;59.744;18.206;2023-03-01T10:22:28;0.77;;;0.47;;
8683;SDS011;4379;59.744;18.206;2023-03-01T10:24:58;0.30;;;0.30;;
8683;SDS011;4379;59.744;18.206;2023-03-01T10:32:39;0.30;;;0.30;;
8683;SDS011;4379;59.744;18.206;2023-03-01T10:35:17;0.60;;;0.40;;
8683;SDS011;4379;59.744;18.206;2023-03-01T10:38:05;0.57;;;0.30;;
8683;SDS011;4379;59.744;18.206;2023-03-01T10:40:51;1.90;;;0.77;;
8683;SDS011;4379;59.744;18.206;2023-03-01T10:43:24;0.30;;;0.30;;
8683;SDS011;4379;59.744;18.206;2023-03-01T10:45:53;0.20;;;0.20;;
8683;SDS011;4379;59.744;18.206;2023-03-01T10:48:27;0.30;;;0.30;;
8683;SDS011;4379;59.744;18.206;2023-03-01T10:53:29;0.50;;;0.33;;
8683;SDS011;4379;59.744;18.206;2023-03-01T10:58:58;0.50;;;0.40;;
8683;SDS011;4379;59.744;18.206;2023-03-01T11:01:28;0.50;;;0.40;;
8683;SDS011;4379;59.744;18.206;2023-03-01T11:06:39;0.20;;;0.20;;
8683;SDS011;4379;59.744;18.206;2023-03-01T11:09:21;1.13;;;0.20;;
8683;SDS011;4379;59.744;18.206;2023-03-01T11:11:52;0.40;;;0.40;;
8683;SDS011;4379;59.744;18.206;2023-03-01T11:14:27;0.43;;;0.40;;
8683;SDS011;4379;59.744;18.206;2023-03-01T11:17:17;0.20;;;0.20;;
8683;SDS011;4379;59.744;18.206;2023-03-01T11:19:59;0.37;;;0.37;;
8683;SDS011;4379;59.744;18.206;2023-03-01T11:22:28;0.43;;;0.43;;
8683;SDS011;4379;59.744;18.206;2023-03-01T11:24:58;0.30;;;0.30;;
8683;SDS011;4379;59.744;18.206;2023-03-01T11:27:43;0.20;;;0.20;;
8683;SDS011;4379;59.744;18.206;2023-03-01T11:30:20;0.33;;;0.20;;
8683;SDS011;4379;59.744;18.206;2023-03-01T11:38:52;0.37;;;0.37;;
8683;SDS011;4379;59.744;18.206;2023-03-01T11:41:23;0.43;;;0.30;;
8683;SDS011;4379;59.744;18.206;2023-03-01T11:46:34;0.40;;;0.40;;
8683;SDS011;4379;59.744;18.206;2023-03-01T11:54:57;0.20;;;0.20;;
8683;SDS011;4379;59.744;18.206;2023-03-01T11:57:59;0.20;;;0.20;;
8683;SDS011;4379;59.744;18.206;2023-03-01T12:01:07;0.43;;;0.30;;
8683;SDS011;4379;59.744;18.206;2023-03-01T12:04:10;0.30;;;0.30;;
8683;SDS011;4379;59.744;18.206;2023-03-01T12:07:00;1.70;;;0.40;;
8683;SDS011;4379;59.744;18.206;2023-03-01T12:09:49;0.50;;;0.40;;
8683;SDS011;4379;59.744;18.206;2023-03-01T12:12:38;0.20;;;0.20;;
8683;SDS011;4379;59.744;18.206;2023-03-01T12:15:52;0.63;;;0.37;;
8683;SDS011;4379;59.744;18.206;2023-03-01T12:18:26;0.30;;;0.30;;
8683;SDS011;4379;59.744;18.206;2023-03-01T12:26:33;2.43;;;0.40;;
8683;SDS011;4379;59.744;18.206;2023-03-01T12:34:31;0.40;;;0.30;;
8683;SDS011;4379;59.744;18.206;2023-03-01T12:48:04;0.30;;;0.30;;
8683;SDS011;4379;59.744;18.206;2023-03-01T12:50:44;0.20;;;0.20;;
8683;SDS011;4379;59.744;18.206;2023-03-01T12:53:24;1.03;;;0.30;;
8683;SDS011;4379;59.744;18.206;2023-03-01T12:55:56;0.43;;;0.30;;
8683;SDS011;4379;59.744;18.206;2023-03-01T13:04:08;0.20;;;0.20;;
8683;SDS011;4379;59.744;18.206;2023-03-01T13:07:02;0.10;;;0.10;;
8683;SDS011;4379;59.744;18.206;2023-03-01T13:09:38;0.20;;;0.20;;
8683;SDS011;4379;59.744;18.206;2023-03-01T13:17:50;0.20;;;0.20;;
8683;SDS011;4379;59.744;18.206;2023-03-01T13:31:56;0.20;;;0.20;;
8683;SDS011;4379;59.744;18.206;2023-03-01T13:33:58;0.30;;;0.20;;
8683;SDS011;4379;59.744;18.206;2023-03-01T13:44:12;0.30;;;0.30;;
8683;SDS011;4379;59.744;18.206;2023-03-01T13:49:41;0.27;;;0.27;;
8683;SDS011;4379;59.744;18.206;2023-03-01T13:52:35;0.30;;;0.30;;
8683;SDS011;4379;59.744;18.206;2023-03-01T13:55:14;0.10;;;0.10;;
8683;SDS011;4379;59.744;18.206;2023-03-01T13:57:49;0.17;;;0.17;;
8683;SDS011;4379;59.744;18.206;2023-03-01T14:00:28;0.57;;;0.30;;
8683;SDS011;4379;59.744;18.206;2023-03-01T14:03:03;0.40;;;0.40;;
8683;SDS011;4379;59.744;18.206;2023-03-01T14:05:32;0.30;;;0.30;;
8683;SDS011;4379;59.744;18.206;2023-03-01T14:08:00;0.40;;;0.30;;
8683;SDS011;4379;59.744;18.206;2023-03-01T14:10:31;0.63;;;0.47;;
8683;SDS011;4379;59.744;18.206;2023-03-01T14:19:16;0.83;;;0.30;;
8683;SDS011;4379;59.744;18.206;2023-03-01T14:22:20;0.30;;;0.30;;
8683;SDS011;4379;59.744;18.206;2023-03-01T14:25:01;0.57;;;0.20;;
8683;SDS011;4379;59.744;18.206;2023-03-01T14:27:35;0.20;;;0.20;;
8683;SDS011;4379;59.744;18.206;2023-03-01T14:30:12;0.30;;;0.30;;
8683;SDS011;4379;59.744;18.206;2023-03-01T14:33:03;0.40;;;0.20;;
8683;SDS011;4379;59.744;18.206;2023-03-01T14:35:34;0.20;;;0.20;;
8683;SDS011;4379;59.744;18.206;2023-03-01T14:38:03;0.20;;;0.20;;
8683;SDS011;4379;59.744;18.206;2023-03-01T14:40:34;0.20;;;0.20;;
8683;SDS011;4379;59.744;18.206;2023-03-01T14:43:08;0.20;;;0.20;;
8683;SDS011;4379;59.744;18.206;2023-03-01T14:45:38;0.23;;;0.20;;
8683;SDS011;4379;59.744;18.206;2023-03-01T14:48:05;0.20;;;0.20;;
8683;SDS011;4379;59.744;18.206;2023-03-01T14:50:34;0.20;;;0.20;;
8683;SDS011;4379;59.744;18.206;2023-03-01T14:53:07;0.23;;;0.20;;
8683;SDS011;4379;59.744;18.206;2023-03-01T14:55:54;0.30;;;0.30;;
8683;SDS011;4379;59.744;18.206;2023-03-01T14:58:26;0.70;;;0.30;;
8683;SDS011;4379;59.744;18.206;2023-03-01T15:00:55;0.30;;;0.30;;
8683;SDS011;4379;59.744;18.206;2023-03-01T15:03:35;0.20;;;0.20;;
8683;SDS011;4379;59.744;18.206;2023-03-01T15:06:11;0.30;;;0.27;;
8683;SDS011;4379;59.744;18.206;2023-03-01T15:08:44;0.30;;;0.30;;
8683;SDS011;4379;59.744;18.206;2023-03-01T15:11:26;0.37;;;0.30;;
8683;SDS011;4379;59.744;18.206;2023-03-01T15:13:56;0.30;;;0.30;;
8683;SDS011;4379;59.744;18.206;2023-03-01T15:18:54;0.20;;;0.20;;
8683;SDS011;4379;59.744;18.206;2023-03-01T15:21:33;0.30;;;0.30;;
8683;SDS011;4379;59.744;18.206;2023-03-01T15:26:53;0.40;;;0.40;;
8683;SDS011;4379;59.744;18.206;2023-03-01T15:29:29;0.33;;;0.33;;
8683;SDS011;4379;59.744;18.206;2023-03-01T15:32:01;0.20;;;0.20;;
8683;SDS011;4379;59.744;18.206;2023-03-01T15:34:34;0.30;;;0.30;;
8683;SDS011;4379;59.744;18.206;2023-03-01T15:37:04;0.30;;;0.30;;
8683;SDS011;4379;59.744;18.206;2023-03-01T15:39:57;0.30;;;0.30;;
8683;SDS011;4379;59.744;18.206;2023-03-01T15:45:10;0.27;;;0.20;;
8683;SDS011;4379;59.744;18.206;2023-03-01T15:47:43;0.23;;;0.23;;
8683;SDS011;4379;59.744;18.206;2023-03-01T15:50:22;0.20;;;0.20;;
8683;SDS011;4379;59.744;18.206;2023-03-01T15:53:01;0.90;;;0.20;;
8683;SDS011;4379;59.744;18.206;2023-03-01T15:55:33;0.83;;;0.40;;
8683;SDS011;4379;59.744;18.206;2023-03-01T15:58:43;0.27;;;0.27;;
8683;SDS011;4379;59.744;18.206;2023-03-01T16:00:51;2.13;;;0.50;;
8683;SDS011;4379;59.744;18.206;2023-03-01T16:03:28;0.67;;;0.40;;
8683;SDS011;4379;59.744;18.206;2023-03-01T16:05:55;0.37;;;0.37;;
8683;SDS011;4379;59.744;18.206;2023-03-01T16:08:23;0.50;;;0.50;;
8683;SDS011;4379;59.744;18.206;2023-03-01T16:10:50;0.50;;;0.50;;
8683;SDS011;4379;59.744;18.206;2023-03-01T16:13:21;0.67;;;0.67;;
8683;SDS011;4379;59.744;18.206;2023-03-01T16:15:49;0.53;;;0.53;;
8683;SDS011;4379;59.744;18.206;2023-03-01T16:18:16;0.50;;;0.50;;
8683;SDS011;4379;59.744;18.206;2023-03-01T16:20:43;0.80;;;0.80;;
8683;SDS011;4379;59.744;18.206;2023-03-01T16:23:20;0.50;;;0.50;;
8683;SDS011;4379;59.744;18.206;2023-03-01T16:25:51;0.70;;;0.70;;
8683;SDS011;4379;59.744;18.206;2023-03-01T16:28:18;1.13;;;0.90;;
8683;SDS011;4379;59.744;18.206;2023-03-01T16:30:48;1.00;;;0.90;;
8683;SDS011;4379;59.744;18.206;2023-03-01T16:33:17;1.67;;;1.20;;
8683;SDS011;4379;59.744;18.206;2023-03-01T16:35:58;1.00;;;1.00;;
8683;SDS011;4379;59.744;18.206;2023-03-01T16:38:30;1.20;;;1.10;;
8683;SDS011;4379;59.744;18.206;2023-03-01T16:40:58;1.70;;;1.20;;
8683;SDS011;4379;59.744;18.206;2023-03-01T16:43:25;1.03;;;1.00;;
8683;SDS011;4379;59.744;18.206;2023-03-01T16:45:53;0.80;;;0.80;;
8683;SDS011;4379;59.744;18.206;2023-03-01T16:48:21;0.70;;;0.70;;
8683;SDS011;4379;59.744;18.206;2023-03-01T16:50:59;0.60;;;0.60;;
8683;SDS011;4379;59.744;18.206;2023-03-01T16:53:29;0.57;;;0.57;;
8683;SDS011;4379;59.744;18.206;2023-03-01T16:56:04;0.50;;;0.50;;
8683;SDS011;4379;59.744;18.206;2023-03-01T16:58:35;0.60;;;0.60;;
8683;SDS011;4379;59.744;18.206;2023-03-01T17:01:03;0.60;;;0.60;;
8683;SDS011;4379;59.744;18.206;2023-03-01T17:03:33;0.50;;;0.50;;
8683;SDS011;4379;59.744;18.206;2023-03-01T17:06:03;1.87;;;0.53;;
8683;SDS011;4379;59.744;18.206;2023-03-01T17:08:32;0.80;;;0.67;;
8683;SDS011;4379;59.744;18.206;2023-03-01T17:11:08;0.53;;;0.50;;
8683;SDS011;4379;59.744;18.206;2023-03-01T17:13:37;0.33;;;0.33;;
8683;SDS011;4379;59.744;18.206;2023-03-01T17:16:12;0.40;;;0.40;;
8683;SDS011;4379;59.744;18.206;2023-03-01T17:18:43;1.97;;;0.47;;
8683;SDS011;4379;59.744;18.206;2023-03-01T17:21:11;0.40;;;0.40;;
8683;SDS011;4379;59.744;18.206;2023-03-01T17:23:42;0.57;;;0.57;;
8683;SDS011;4379;59.744;18.206;2023-03-01T17:26:16;2.00;;;0.50;;
8683;SDS011;4379;59.744;18.206;2023-03-01T17:28:56;0.40;;;0.40;;